Time;durP1;ratioP1;P1;durP2;ratioP2;P2;SDS_P1;SDS_P2;PMS_P1;PMS_P2;Temp;Humidity;BMP_temperature;BMP_pressure;BME280_temperature;BME280_humidity;BME280_pressure;Samples;Min_cycle;Max_cycle;Signal;HPM_P1;HPM_P2
2022/09/17 00:02:21;;;;;;;;;;;9.80;99.90;;;;;;5040001;28;19917;-78
2022/09/17 00:04:47;;;;;;;;;;;9.80;99.90;;;;;;5050390;28;19912;-78
2022/09/17 00:07:13;;;;;;;;;;;9.80;99.90;;;;;;5040628;28;20130;-78
2022/09/17 00:09:38;;;;;;;;;;;9.80;99.90;;;;;;5044914;28;19920;-78
2022/09/17 00:12:04;;;;;;;;;;;9.80;99.90;;;;;;5035998;28;19917;-78
2022/09/17 00:14:29;;;;;;;;;;;9.90;99.90;;;;;;5040079;28;19921;-78
2022/09/17 00:16:55;;;;;;;;;;;9.90;99.90;;;;;;5043532;28;19943;-77
2022/09/17 00:19:21;;;;;;;;;;;10.00;99.90;;;;;;5040490;28;20377;-77
2022/09/17 00:21:47;;;;;;;;;;;10.00;99.90;;;;;;5039623;28;19912;-77
2022/09/17 00:24:13;;;;;;;;;;;10.10;99.90;;;;;;5047958;28;19915;-78
2022/09/17 00:26:39;;;;;;;;;;;10.10;99.90;;;;;;5046573;28;19970;-77
2022/09/17 00:29:05;;;;;;;;;;;10.20;99.90;;;;;;5049711;28;19909;-77
2022/09/17 00:31:31;;;;;;;;;;;10.30;99.90;;;;;;5048249;28;20000;-77
2022/09/17 00:33:57;;;;;;;;;;;10.20;99.90;;;;;;5050288;28;19913;-77
2022/09/17 00:36:23;;;;;;;;;;;10.30;99.90;;;;;;5035466;28;19923;-77
2022/09/17 00:38:49;;;;;;;;;;;10.20;99.90;;;;;;5048980;28;19913;-77
2022/09/17 00:41:15;;;;;;;;;;;10.20;99.90;;;;;;5048623;28;19917;-77
2022/09/17 00:43:40;;;;;;;;;;;10.10;99.90;;;;;;5037250;28;19917;-77
2022/09/17 00:46:15;;;;;;;;;;;10.10;99.90;;;;;;5043871;28;19955;-77
2022/09/17 00:48:41;;;;;;;;;;;9.80;99.90;;;;;;5037320;28;19912;-78
2022/09/17 00:51:07;;;;;;;;;;;9.70;99.90;;;;;;5045565;28;19924;-77
2022/09/17 00:53:33;;;;;;;;;;;9.70;99.90;;;;;;5040058;28;20384;-77
2022/09/17 00:56:03;;;;;;;;;;;9.60;99.90;;;;;;5040813;28;19928;-77
2022/09/17 00:58:30;;;;;;;;;;;9.60;99.90;;;;;;5036983;28;20050;-78
2022/09/17 01:00:56;;;;;;;;;;;9.50;99.90;;;;;;5049088;28;20365;-77
2022/09/17 01:03:21;;;;;;;;;;;9.50;99.90;;;;;;5038095;28;19920;-78
2022/09/17 01:05:53;;;;;;;;;;;9.40;99.90;;;;;;5038333;28;19913;-78
2022/09/17 01:08:34;;;;;;;;;;;9.30;99.90;;;;;;5044890;28;19921;-78
2022/09/17 01:10:59;;;;;;;;;;;9.30;99.90;;;;;;5045403;28;19917;-78
2022/09/17 01:13:46;;;;;;;;;;;9.30;99.90;;;;;;5043705;28;19920;-78
2022/09/17 01:16:18;;;;;;;;;;;9.20;99.90;;;;;;5056544;28;20350;-78
2022/09/17 01:18:58;;;;;;;;;;;9.20;99.90;;;;;;5041509;28;20358;-77
2022/09/17 01:21:39;;;;;;;;;;;9.10;99.90;;;;;;5048446;28;19912;-77
2022/09/17 01:24:23;;;;;;;;;;;9.20;99.90;;;;;;5045988;28;20506;-77
2022/09/17 01:27:00;;;;;;;;;;;9.30;99.90;;;;;;5044759;28;19908;-78
2022/09/17 01:29:32;;;;;;;;;;;9.30;99.90;;;;;;5047733;28;19913;-78
2022/09/17 01:32:03;;;;;;;;;;;9.40;99.90;;;;;;5042152;28;19924;-78
2022/09/17 01:34:45;;;;;;;;;;;9.40;99.90;;;;;;5036738;28;20011;-78
2022/09/17 01:37:13;;;;;;;;;;;9.50;99.90;;;;;;5027464;28;19925;-78
2022/09/17 01:39:45;;;;;;;;;;;9.50;99.90;;;;;;5038242;28;20306;-78
2022/09/17 01:42:15;;;;;;;;;;;9.60;99.90;;;;;;5045305;28;20368;-78
2022/09/17 01:44:41;;;;;;;;;;;9.60;99.90;;;;;;5033557;28;19917;-77
2022/09/17 01:47:14;;;;;;;;;;;9.70;99.90;;;;;;5043675;28;19909;-78
2022/09/17 01:49:40;;;;;;;;;;;9.70;99.90;;;;;;5045961;28;19982;-80
2022/09/17 01:52:08;;;;;;;;;;;9.70;99.90;;;;;;5048961;28;20395;-77
2022/09/17 01:54:36;;;;;;;;;;;9.60;99.90;;;;;;5042361;28;19912;-78
2022/09/17 01:57:08;;;;;;;;;;;9.70;99.90;;;;;;5039143;28;19959;-78
2022/09/17 01:59:38;;;;;;;;;;;9.60;99.90;;;;;;5030996;28;20299;-78
2022/09/17 02:02:26;;;;;;;;;;;9.70;99.90;;;;;;5044759;28;19921;-78
2022/09/17 02:04:57;;;;;;;;;;;9.70;99.90;;;;;;5042907;28;19970;-78
2022/09/17 02:07:24;;;;;;;;;;;9.70;99.90;;;;;;5045770;28;20035;-78
2022/09/17 02:10:08;;;;;;;;;;;9.80;99.90;;;;;;5045334;28;19913;-78
2022/09/17 02:12:43;;;;;;;;;;;9.70;99.90;;;;;;5041395;28;20618;-78
2022/09/17 02:15:15;;;;;;;;;;;9.70;99.90;;;;;;5039105;28;19913;-78
2022/09/17 02:17:48;;;;;;;;;;;9.70;99.90;;;;;;5035952;28;20364;-79
2022/09/17 02:20:14;;;;;;;;;;;9.70;99.90;;;;;;5042344;28;19913;-78
2022/09/17 02:22:41;;;;;;;;;;;9.60;99.90;;;;;;5047635;28;19912;-79
2022/09/17 02:25:14;;;;;;;;;;;9.60;99.90;;;;;;5044723;28;19920;-79
2022/09/17 02:27:45;;;;;;;;;;;9.50;99.90;;;;;;5046522;28;19950;-79
2022/09/17 02:30:12;;;;;;;;;;;9.50;99.90;;;;;;5038616;28;20204;-78
2022/09/17 02:32:37;;;;;;;;;;;9.40;99.90;;;;;;5040947;28;19963;-79
2022/09/17 02:35:03;;;;;;;;;;;9.40;99.90;;;;;;5034525;28;19949;-78
2022/09/17 02:37:29;;;;;;;;;;;9.40;99.90;;;;;;5042701;28;20020;-79
2022/09/17 02:39:54;;;;;;;;;;;9.50;99.90;;;;;;5058053;28;20324;-78
2022/09/17 02:42:32;;;;;;;;;;;9.50;99.90;;;;;;5042343;28;20007;-79
2022/09/17 02:45:07;;;;;;;;;;;9.50;99.90;;;;;;5052734;28;19939;-79
2022/09/17 02:47:51;;;;;;;;;;;9.60;99.90;;;;;;5031668;28;19963;-78
2022/09/17 02:50:29;;;;;;;;;;;9.60;99.90;;;;;;5037501;28;19931;-79
2022/09/17 02:52:55;;;;;;;;;;;9.60;99.90;;;;;;5042661;28;20002;-78
2022/09/17 02:55:30;;;;;;;;;;;9.70;99.90;;;;;;5045191;28;19969;-79
2022/09/17 02:58:11;;;;;;;;;;;9.70;99.90;;;;;;5034025;28;19924;-78
2022/09/17 03:00:37;;;;;;;;;;;9.70;99.90;;;;;;5033873;28;19913;-79
2022/09/17 03:03:25;;;;;;;;;;;9.70;99.90;;;;;;5037103;28;19913;-79
2022/09/17 03:05:51;;;;;;;;;;;9.70;99.90;;;;;;5045049;28;19916;-79
2022/09/17 03:08:19;;;;;;;;;;;9.70;99.90;;;;;;5042602;28;19912;-78
2022/09/17 03:10:47;;;;;;;;;;;9.70;99.90;;;;;;5018944;28;19924;-79
2022/09/17 03:13:13;;;;;;;;;;;9.80;99.90;;;;;;5046935;28;20240;-78
2022/09/17 03:15:39;;;;;;;;;;;9.80;99.90;;;;;;5049261;28;19919;-79
2022/09/17 03:18:04;;;;;;;;;;;9.80;99.90;;;;;;5046542;28;19942;-78
2022/09/17 03:20:30;;;;;;;;;;;9.80;99.90;;;;;;5042302;28;19917;-79
2022/09/17 03:22:55;;;;;;;;;;;9.70;99.90;;;;;;5051439;28;19916;-79
2022/09/17 03:25:21;;;;;;;;;;;9.80;99.90;;;;;;5048811;28;19915;-79
2022/09/17 03:27:47;;;;;;;;;;;9.80;99.90;;;;;;5055253;28;19917;-79
2022/09/17 03:30:12;;;;;;;;;;;9.80;99.90;;;;;;5040167;28;20024;-78
2022/09/17 03:32:38;;;;;;;;;;;9.80;99.90;;;;;;5041103;28;20440;-78
2022/09/17 03:35:03;;;;;;;;;;;9.80;99.90;;;;;;5020910;28;19917;-78
2022/09/17 03:37:30;;;;;;;;;;;9.80;99.90;;;;;;5046959;28;19920;-78
2022/09/17 03:39:55;;;;;;;;;;;9.80;99.90;;;;;;5059128;28;19955;-78
2022/09/17 03:42:21;;;;;;;;;;;9.80;99.90;;;;;;5035862;28;19962;-78
2022/09/17 03:44:46;;;;;;;;;;;9.80;99.90;;;;;;5050386;28;20299;-78
2022/09/17 03:47:12;;;;;;;;;;;9.80;99.90;;;;;;5045004;28;20375;-78
2022/09/17 03:49:37;;;;;;;;;;;9.80;99.90;;;;;;5049713;28;19913;-79
2022/09/17 03:52:03;;;;;;;;;;;9.80;99.90;;;;;;5039484;28;20008;-79
2022/09/17 03:54:28;;;;;;;;;;;9.70;99.90;;;;;;5044127;28;19917;-79
2022/09/17 03:56:54;;;;;;;;;;;9.80;99.90;;;;;;5039239;28;20035;-79
2022/09/17 03:59:19;;;;;;;;;;;9.70;99.90;;;;;;5048604;28;19917;-79
2022/09/17 04:01:45;;;;;;;;;;;9.70;99.90;;;;;;5039051;28;19924;-79
2022/09/17 04:04:10;;;;;;;;;;;9.80;99.90;;;;;;5048429;28;19916;-79
2022/09/17 04:06:36;;;;;;;;;;;9.80;99.90;;;;;;5043964;28;19959;-79
2022/09/17 04:09:03;;;;;;;;;;;9.80;99.90;;;;;;5050648;28;19913;-78
2022/09/17 04:11:29;;;;;;;;;;;9.80;99.90;;;;;;5039291;28;20430;-78
2022/09/17 04:13:54;;;;;;;;;;;9.70;99.90;;;;;;5043736;28;19913;-79
2022/09/17 04:16:20;;;;;;;;;;;9.80;99.90;;;;;;5050603;28;19916;-79
2022/09/17 04:18:46;;;;;;;;;;;9.70;99.90;;;;;;5048610;28;19919;-78
2022/09/17 04:21:11;;;;;;;;;;;9.80;99.90;;;;;;5050447;28;19955;-78
2022/09/17 04:23:37;;;;;;;;;;;9.70;99.90;;;;;;5038533;28;20312;-79
2022/09/17 04:26:03;;;;;;;;;;;9.70;99.90;;;;;;5051218;28;20296;-78
2022/09/17 04:28:28;;;;;;;;;;;9.70;99.90;;;;;;5039421;28;19912;-79
2022/09/17 04:30:54;;;;;;;;;;;9.70;99.90;;;;;;5059318;28;20550;-78
2022/09/17 04:33:19;;;;;;;;;;;9.60;99.90;;;;;;5043255;28;20051;-79
2022/09/17 04:35:45;;;;;;;;;;;9.70;99.90;;;;;;5046459;28;19970;-78
2022/09/17 04:38:12;;;;;;;;;;;9.70;99.90;;;;;;5045055;28;20454;-79
2022/09/17 04:40:40;;;;;;;;;;;9.70;99.90;;;;;;5040648;28;20011;-80
2022/09/17 04:43:05;;;;;;;;;;;9.60;99.90;;;;;;5047720;28;19916;-80
2022/09/17 04:45:32;;;;;;;;;;;9.60;99.90;;;;;;5050248;28;19939;-79
2022/09/17 04:47:57;;;;;;;;;;;9.50;99.90;;;;;;5040387;28;19924;-79
2022/09/17 04:50:23;;;;;;;;;;;9.50;99.90;;;;;;5036026;28;19913;-79
2022/09/17 04:52:49;;;;;;;;;;;9.40;99.90;;;;;;5048722;28;19913;-79
2022/09/17 04:55:14;;;;;;;;;;;9.40;99.90;;;;;;5044699;28;19913;-80
2022/09/17 04:57:50;;;;;;;;;;;9.40;99.90;;;;;;5038298;28;19920;-76
2022/09/17 05:00:16;;;;;;;;;;;9.40;99.90;;;;;;5049059;28;20403;-78
2022/09/17 05:02:46;;;;;;;;;;;9.40;99.90;;;;;;5045606;28;19913;-77
2022/09/17 05:05:12;;;;;;;;;;;9.40;99.90;;;;;;5036409;28;20335;-77
2022/09/17 05:07:38;;;;;;;;;;;9.50;99.90;;;;;;5046648;28;20344;-77
2022/09/17 05:10:03;;;;;;;;;;;9.40;99.90;;;;;;5048912;28;19909;-76
2022/09/17 05:12:29;;;;;;;;;;;9.50;99.90;;;;;;5054954;28;20640;-78
2022/09/17 05:14:54;;;;;;;;;;;9.50;99.90;;;;;;5047610;28;19916;-77
2022/09/17 05:17:20;;;;;;;;;;;9.50;99.90;;;;;;5043774;28;19927;-78
2022/09/17 05:19:45;;;;;;;;;;;9.50;99.90;;;;;;5047446;28;19968;-77
2022/09/17 05:22:11;;;;;;;;;;;9.40;99.90;;;;;;5036901;28;20391;-78
2022/09/17 05:24:38;;;;;;;;;;;9.40;99.90;;;;;;5050919;28;20012;-77
2022/09/17 05:27:04;;;;;;;;;;;9.40;99.90;;;;;;5041647;28;20275;-78
2022/09/17 05:29:30;;;;;;;;;;;9.50;99.90;;;;;;5046633;28;19908;-78
2022/09/17 05:31:56;;;;;;;;;;;9.40;99.90;;;;;;5045208;28;19912;-78
2022/09/17 05:34:21;;;;;;;;;;;9.20;99.90;;;;;;5046560;28;19908;-78
2022/09/17 05:36:48;;;;;;;;;;;9.20;99.90;;;;;;5029048;28;19924;-76
2022/09/17 05:39:13;;;;;;;;;;;9.20;99.90;;;;;;5058410;28;19909;-79
2022/09/17 05:41:39;;;;;;;;;;;9.20;99.90;;;;;;5033539;28;19921;-78
2022/09/17 05:44:04;;;;;;;;;;;9.10;99.90;;;;;;5042857;28;19913;-78
2022/09/17 05:46:30;;;;;;;;;;;9.20;99.90;;;;;;5041779;28;20645;-78
2022/09/17 05:48:56;;;;;;;;;;;9.30;99.90;;;;;;5043042;28;20381;-79
2022/09/17 05:51:21;;;;;;;;;;;9.30;99.90;;;;;;5040361;28;20352;-78
2022/09/17 05:53:47;;;;;;;;;;;9.40;99.90;;;;;;5042422;28;20190;-78
2022/09/17 05:56:12;;;;;;;;;;;9.50;99.90;;;;;;5035211;28;20020;-79
2022/09/17 05:58:38;;;;;;;;;;;9.50;99.90;;;;;;5039545;28;19913;-78
2022/09/17 06:01:03;;;;;;;;;;;9.60;99.90;;;;;;5036949;28;20411;-78
2022/09/17 06:03:29;;;;;;;;;;;9.60;99.90;;;;;;5042896;28;20000;-79
2022/09/17 06:05:57;;;;;;;;;;;9.60;99.90;;;;;;5031451;28;19956;-78
2022/09/17 06:08:22;;;;;;;;;;;9.60;99.90;;;;;;5042236;28;19913;-78
2022/09/17 06:10:48;;;;;;;;;;;9.70;99.90;;;;;;5043805;28;19946;-79
2022/09/17 06:13:14;;;;;;;;;;;9.70;99.90;;;;;;5040946;28;19963;-79
2022/09/17 06:15:40;;;;;;;;;;;9.80;99.90;;;;;;5036809;28;20032;-79
2022/09/17 06:18:05;;;;;;;;;;;9.90;99.90;;;;;;5042592;28;20066;-79
2022/09/17 06:20:31;;;;;;;;;;;10.00;99.90;;;;;;5035564;28;19923;-78
2022/09/17 06:22:57;;;;;;;;;;;10.10;99.90;;;;;;5029788;28;19913;-79
2022/09/17 06:25:23;;;;;;;;;;;10.00;99.90;;;;;;5037980;28;19912;-78
2022/09/17 06:27:48;;;;;;;;;;;10.00;99.90;;;;;;5044964;28;19921;-83
2022/09/17 06:30:14;;;;;;;;;;;9.90;99.90;;;;;;5038145;28;19944;-77
2022/09/17 06:32:39;;;;;;;;;;;9.90;99.90;;;;;;5034543;28;19960;-78
2022/09/17 06:35:05;;;;;;;;;;;9.90;99.90;;;;;;5037309;28;19974;-78
2022/09/17 06:37:31;;;;;;;;;;;9.80;99.90;;;;;;5038018;28;19921;-78
2022/09/17 06:39:58;;;;;;;;;;;9.80;99.90;;;;;;5034128;28;19965;-78
2022/09/17 06:42:25;;;;;;;;;;;9.90;99.90;;;;;;5031272;28;19925;-78
2022/09/17 06:44:50;;;;;;;;;;;10.00;99.90;;;;;;5036708;28;19916;-77
2022/09/17 06:47:16;;;;;;;;;;;9.90;99.90;;;;;;5036315;28;19912;-78
2022/09/17 06:49:41;;;;;;;;;;;10.00;99.90;;;;;;5038105;28;19920;-78
2022/09/17 06:52:07;;;;;;;;;;;10.10;99.90;;;;;;5037329;28;19917;-78
2022/09/17 06:54:33;;;;;;;;;;;10.20;99.90;;;;;;5011983;28;19915;-78
2022/09/17 06:56:58;;;;;;;;;;;10.20;99.90;;;;;;5028000;28;19923;-78
2022/09/17 06:59:24;;;;;;;;;;;10.30;99.90;;;;;;5043261;28;19924;-78
2022/09/17 07:01:49;;;;;;;;;;;10.60;99.90;;;;;;5050538;28;19917;-78
2022/09/17 07:04:17;;;;;;;;;;;10.80;99.90;;;;;;5040984;28;19999;-77
2022/09/17 07:06:43;;;;;;;;;;;10.90;99.90;;;;;;5037532;28;19912;-78
2022/09/17 07:09:09;;;;;;;;;;;11.00;99.90;;;;;;5041689;28;19986;-77
2022/09/17 07:11:35;;;;;;;;;;;10.90;99.90;;;;;;5045667;28;19954;-77
2022/09/17 07:14:00;;;;;;;;;;;10.90;99.90;;;;;;5035250;28;19921;-77
2022/09/17 07:16:26;;;;;;;;;;;10.70;99.90;;;;;;5043927;28;20404;-77
2022/09/17 07:18:52;;;;;;;;;;;10.70;99.90;;;;;;5046323;28;19913;-78
2022/09/17 07:21:17;;;;;;;;;;;10.70;99.90;;;;;;5045553;28;19913;-78
2022/09/17 07:23:44;;;;;;;;;;;10.70;99.90;;;;;;5041038;28;19917;-78
2022/09/17 07:26:14;;;;;;;;;;;10.70;99.90;;;;;;5035198;28;19917;-78
2022/09/17 07:28:40;;;;;;;;;;;11.00;99.90;;;;;;5038505;28;19916;-78
2022/09/17 07:31:06;;;;;;;;;;;11.00;99.90;;;;;;5045379;28;19912;-78
2022/09/17 07:33:33;;;;;;;;;;;10.90;99.90;;;;;;5036291;28;19909;-76
2022/09/17 07:36:00;;;;;;;;;;;10.90;99.90;;;;;;5038199;28;19909;-78
2022/09/17 07:38:26;;;;;;;;;;;10.90;99.90;;;;;;5037663;28;19909;-75
2022/09/17 07:40:54;;;;;;;;;;;10.90;99.90;;;;;;5033037;28;19917;-76
2022/09/17 07:43:20;;;;;;;;;;;11.00;99.90;;;;;;5042286;28;20536;-75
2022/09/17 07:45:45;;;;;;;;;;;11.30;99.90;;;;;;5037804;28;19919;-75
2022/09/17 07:48:11;;;;;;;;;;;11.20;99.90;;;;;;5044127;28;19917;-77
2022/09/17 07:50:36;;;;;;;;;;;11.20;99.90;;;;;;5030328;28;19999;-76
2022/09/17 07:53:03;;;;;;;;;;;11.10;99.90;;;;;;5040593;28;19999;-76
2022/09/17 07:55:28;;;;;;;;;;;10.90;99.90;;;;;;5043722;28;20321;-76
2022/09/17 07:57:54;;;;;;;;;;;10.80;99.90;;;;;;5042155;28;19923;-76
2022/09/17 08:00:20;;;;;;;;;;;11.10;99.90;;;;;;5035321;28;20454;-76
2022/09/17 08:02:51;;;;;;;;;;;11.00;99.90;;;;;;5050739;28;19909;-76
2022/09/17 08:05:16;;;;;;;;;;;11.10;99.90;;;;;;5047849;28;19909;-76
2022/09/17 08:07:42;;;;;;;;;;;10.80;99.90;;;;;;5032789;28;20291;-76
2022/09/17 08:10:08;;;;;;;;;;;10.80;99.90;;;;;;5047710;28;19920;-76
2022/09/17 08:12:33;;;;;;;;;;;10.70;99.90;;;;;;5057613;28;20362;-75
2022/09/17 08:14:59;;;;;;;;;;;10.90;99.90;;;;;;5051065;28;19919;-76
2022/09/17 08:17:24;;;;;;;;;;;10.90;99.90;;;;;;5049434;28;19917;-74
2022/09/17 08:19:50;;;;;;;;;;;10.70;99.90;;;;;;5039478;28;19925;-75
2022/09/17 08:22:15;;;;;;;;;;;10.90;99.90;;;;;;5049037;28;19916;-76
2022/09/17 08:24:41;;;;;;;;;;;10.90;99.90;;;;;;5035876;28;19924;-78
2022/09/17 08:27:07;;;;;;;;;;;11.10;99.90;;;;;;5034220;28;19909;-78
2022/09/17 08:29:32;;;;;;;;;;;11.10;99.90;;;;;;5033815;28;19964;-79
2022/09/17 08:31:58;;;;;;;;;;;11.40;99.90;;;;;;5031794;28;19975;-76
2022/09/17 08:34:23;;;;;;;;;;;11.60;99.90;;;;;;5028398;28;19909;-77
2022/09/17 08:36:49;;;;;;;;;;;11.90;99.90;;;;;;5029739;28;19917;-77
2022/09/17 08:39:14;;;;;;;;;;;11.80;99.90;;;;;;5045996;28;19917;-77
2022/09/17 08:41:58;;;;;;;;;;;11.50;99.90;;;;;;5046415;28;19929;-77
2022/09/17 08:44:45;;;;;;;;;;;11.00;99.90;;;;;;5042540;28;19916;-77
2022/09/17 08:47:17;;;;;;;;;;;10.50;99.90;;;;;;5030527;28;19959;-79
2022/09/17 08:49:48;;;;;;;;;;;10.50;99.90;;;;;;5027775;28;19917;-77
2022/09/17 08:52:33;;;;;;;;;;;10.60;99.90;;;;;;5034595;28;20303;-75
2022/09/17 08:55:04;;;;;;;;;;;10.70;99.90;;;;;;5037283;28;19909;-76
2022/09/17 08:57:48;;;;;;;;;;;10.80;99.90;;;;;;5038594;28;19936;-80
2022/09/17 09:00:21;;;;;;;;;;;10.90;99.90;;;;;;5039384;28;19909;-79
2022/09/17 09:02:54;;;;;;;;;;;11.00;99.90;;;;;;5028208;28;20027;-76
2022/09/17 09:05:35;;;;;;;;;;;11.30;99.90;;;;;;5032021;28;19999;-77
2022/09/17 09:08:03;;;;;;;;;;;11.40;99.90;;;;;;5032422;28;19913;-75
2022/09/17 09:10:43;;;;;;;;;;;11.30;99.90;;;;;;5038813;28;19997;-75
2022/09/17 09:13:10;;;;;;;;;;;11.10;99.90;;;;;;5035908;28;19966;-75
2022/09/17 09:15:42;;;;;;;;;;;11.00;99.90;;;;;;5040355;28;20434;-75
2022/09/17 09:18:18;;;;;;;;;;;11.00;99.90;;;;;;5036573;28;19924;-75
2022/09/17 09:20:54;;;;;;;;;;;11.10;99.90;;;;;;5038323;28;19912;-75
2022/09/17 09:23:25;;;;;;;;;;;10.70;99.90;;;;;;5036175;28;19912;-75
2022/09/17 09:26:02;;;;;;;;;;;9.80;99.90;;;;;;5036982;28;20289;-75
2022/09/17 09:29:02;;;;;;;;;;;9.70;99.90;;;;;;5042166;28;20217;-78
2022/09/17 09:31:28;;;;;;;;;;;9.40;99.90;;;;;;5005374;28;19967;-80
2022/09/17 09:33:54;;;;;;;;;;;9.50;99.90;;;;;;5025392;28;19913;-75
2022/09/17 09:36:20;;;;;;;;;;;9.50;99.90;;;;;;5040319;28;19917;-75
2022/09/17 09:38:52;;;;;;;;;;;9.50;99.90;;;;;;5040463;28;20021;-75
2022/09/17 09:41:35;;;;;;;;;;;9.50;99.90;;;;;;5028091;28;19979;-75
2022/09/17 09:44:07;;;;;;;;;;;9.80;99.90;;;;;;5048573;28;19966;-75
2022/09/17 09:46:39;;;;;;;;;;;9.60;99.90;;;;;;5038526;28;19916;-75
2022/09/17 09:49:16;;;;;;;;;;;9.80;99.90;;;;;;5049588;28;19909;-75
2022/09/17 09:52:00;;;;;;;;;;;9.90;99.90;;;;;;5046713;28;19912;-74
2022/09/17 09:54:31;;;;;;;;;;;10.00;99.90;;;;;;5046918;28;20288;-74
2022/09/17 09:56:59;;;;;;;;;;;9.90;99.90;;;;;;5045859;28;19923;-75
2022/09/17 09:59:25;;;;;;;;;;;9.80;99.90;;;;;;5047436;28;19919;-75
2022/09/17 10:01:50;;;;;;;;;;;10.20;99.90;;;;;;5044460;28;20312;-75
2022/09/17 10:04:19;;;;;;;;;;;10.10;99.90;;;;;;5048296;28;20308;-75
2022/09/17 10:06:45;;;;;;;;;;;10.10;99.90;;;;;;5032034;28;19913;-75
2022/09/17 10:09:11;;;;;;;;;;;10.50;99.90;;;;;;5042004;28;19995;-75
2022/09/17 10:11:38;;;;;;;;;;;10.60;99.90;;;;;;5047218;28;19952;-76
2022/09/17 10:14:18;;;;;;;;;;;10.40;99.90;;;;;;5044552;28;19924;-74
2022/09/17 10:16:44;;;;;;;;;;;10.60;99.90;;;;;;5045977;28;20091;-74
2022/09/17 10:19:17;;;;;;;;;;;10.60;99.90;;;;;;5043101;28;20015;-77
2022/09/17 10:21:43;;;;;;;;;;;10.00;99.90;;;;;;5020508;28;19912;-74
2022/09/17 10:24:27;;;;;;;;;;;9.90;99.90;;;;;;5039069;28;19919;-74
2022/09/17 10:27:00;;;;;;;;;;;9.80;99.90;;;;;;5037614;28;20367;-74
2022/09/17 10:29:25;;;;;;;;;;;10.70;99.90;;;;;;5032482;28;19967;-73
2022/09/17 10:31:52;;;;;;;;;;;12.00;95.70;;;;;;5030949;28;19916;-73
2022/09/17 10:34:22;;;;;;;;;;;12.30;96.80;;;;;;5038404;28;19919;-73
2022/09/17 10:36:48;;;;;;;;;;;12.30;89.00;;;;;;5053451;28;20008;-74
2022/09/17 10:39:25;;;;;;;;;;;13.10;90.40;;;;;;5034581;28;20007;-74
2022/09/17 10:41:54;;;;;;;;;;;12.30;85.20;;;;;;5036464;28;20217;-74
2022/09/17 10:44:21;;;;;;;;;;;11.70;90.90;;;;;;5033791;28;20385;-75
2022/09/17 10:46:47;;;;;;;;;;;10.00;99.90;;;;;;5033688;28;19920;-75
2022/09/17 10:49:21;;;;;;;;;;;9.30;99.90;;;;;;5048628;28;19913;-75
2022/09/17 10:51:47;;;;;;;;;;;9.30;99.90;;;;;;5035402;28;19913;-76
2022/09/17 10:54:19;;;;;;;;;;;9.30;99.90;;;;;;5026147;28;19923;-75
2022/09/17 10:56:48;;;;;;;;;;;9.50;99.90;;;;;;5043495;28;19913;-75
2022/09/17 10:59:23;;;;;;;;;;;10.30;99.90;;;;;;5049059;28;20001;-75
2022/09/17 11:01:51;;;;;;;;;;;10.70;99.90;;;;;;5047566;28;20384;-83
2022/09/17 11:04:20;;;;;;;;;;;10.60;99.90;;;;;;5044536;28;19909;-77
2022/09/17 11:06:45;;;;;;;;;;;11.00;99.90;;;;;;5048180;28;20369;-76
2022/09/17 11:09:29;;;;;;;;;;;11.20;99.90;;;;;;5037482;28;19934;-77
2022/09/17 11:12:14;;;;;;;;;;;10.90;99.90;;;;;;5039046;28;20472;-77
2022/09/17 11:14:42;;;;;;;;;;;10.80;99.90;;;;;;5043904;28;19947;-77
2022/09/17 11:17:16;;;;;;;;;;;10.80;99.90;;;;;;5041079;28;19960;-81
2022/09/17 11:19:48;;;;;;;;;;;11.10;99.90;;;;;;5039590;28;20458;-77
2022/09/17 11:22:23;;;;;;;;;;;11.30;99.90;;;;;;5038937;28;19913;-82
2022/09/17 11:24:55;;;;;;;;;;;11.10;99.90;;;;;;5028166;28;20360;-83
2022/09/17 11:27:29;;;;;;;;;;;10.80;99.90;;;;;;5027974;28;20395;-77
2022/09/17 11:29:57;;;;;;;;;;;10.70;99.90;;;;;;5040099;28;20415;-77
2022/09/17 11:32:22;;;;;;;;;;;10.90;99.90;;;;;;5045203;28;19916;-76
2022/09/17 11:34:57;;;;;;;;;;;11.20;99.90;;;;;;5040563;28;20394;-78
2022/09/17 11:37:30;;;;;;;;;;;10.70;99.90;;;;;;5045772;28;19912;-77
2022/09/17 11:39:55;;;;;;;;;;;10.40;99.90;;;;;;5047211;28;20007;-75
2022/09/17 11:42:32;;;;;;;;;;;10.10;99.90;;;;;;5044694;28;20462;-75
2022/09/17 11:45:01;;;;;;;;;;;10.10;99.90;;;;;;5038176;28;19913;-76
2022/09/17 11:47:33;;;;;;;;;;;9.90;99.90;;;;;;5033911;28;19917;-75
2022/09/17 11:50:08;;;;;;;;;;;10.30;99.90;;;;;;5043433;28;19935;-75
2022/09/17 11:52:36;;;;;;;;;;;11.70;99.90;;;;;;5044914;28;20367;-76
2022/09/17 11:55:01;;;;;;;;;;;13.00;99.90;;;;;;5036670;28;19958;-76
2022/09/17 11:57:31;;;;;;;;;;;14.10;99.90;;;;;;5038418;28;19913;-77
2022/09/17 12:00:04;;;;;;;;;;;14.70;99.90;;;;;;5037290;28;19909;-75
2022/09/17 12:02:50;;;;;;;;;;;12.60;94.50;;;;;;5041697;28;19916;-75
2022/09/17 12:05:18;;;;;;;;;;;12.40;97.80;;;;;;5039887;28;20451;-76
2022/09/17 12:07:56;;;;;;;;;;;13.60;99.90;;;;;;5040425;28;19991;-75
2022/09/17 12:10:31;;;;;;;;;;;14.20;92.20;;;;;;5040525;28;19909;-75
2022/09/17 12:13:08;;;;;;;;;;;14.30;97.30;;;;;;5038813;28;19944;-75
2022/09/17 12:15:37;;;;;;;;;;;14.20;90.20;;;;;;5047559;28;19958;-76
2022/09/17 12:18:18;;;;;;;;;;;14.10;99.90;;;;;;5045960;28;20007;-79
2022/09/17 12:20:49;;;;;;;;;;;14.80;95.70;;;;;;5042121;28;19909;-77
2022/09/17 12:23:16;;;;;;;;;;;14.10;80.90;;;;;;5055725;28;20347;-75
2022/09/17 12:25:47;;;;;;;;;;;14.00;85.30;;;;;;5046718;28;19988;-76
2022/09/17 12:28:20;;;;;;;;;;;13.60;92.00;;;;;;5036311;28;19909;-76
2022/09/17 12:31:09;;;;;;;;;;;13.90;92.80;;;;;;5050169;28;20058;-76
2022/09/17 12:33:39;;;;;;;;;;;14.00;89.60;;;;;;5028327;28;19909;-79
2022/09/17 12:36:12;;;;;;;;;;;14.20;88.60;;;;;;5047896;28;20050;-78
2022/09/17 12:39:00;;;;;;;;;;;13.80;83.20;;;;;;5050564;28;19913;-78
2022/09/17 12:41:40;;;;;;;;;;;13.50;92.60;;;;;;5039189;28;20349;-77
2022/09/17 12:44:12;;;;;;;;;;;14.00;86.90;;;;;;5049827;28;20411;-77
2022/09/17 12:47:00;;;;;;;;;;;13.80;98.10;;;;;;5033211;28;19912;-78
2022/09/17 12:49:32;;;;;;;;;;;14.10;87.40;;;;;;5022262;28;19912;-77
2022/09/17 12:52:04;;;;;;;;;;;14.00;81.80;;;;;;5047183;28;19917;-76
2022/09/17 12:54:32;;;;;;;;;;;14.40;81.20;;;;;;5039106;28;19909;-76
2022/09/17 12:57:03;;;;;;;;;;;14.60;80.80;;;;;;5044588;28;19917;-76
2022/09/17 12:59:31;;;;;;;;;;;15.10;80.80;;;;;;5048017;28;20335;-76
2022/09/17 13:02:00;;;;;;;;;;;14.50;92.60;;;;;;5047435;28;19913;-76
2022/09/17 13:04:26;;;;;;;;;;;14.00;76.20;;;;;;5049726;28;19916;-76
2022/09/17 13:06:57;;;;;;;;;;;14.00;77.00;;;;;;5041165;28;19986;-76
2022/09/17 13:09:26;;;;;;;;;;;13.40;77.10;;;;;;5040163;28;20016;-76
2022/09/17 13:12:11;;;;;;;;;;;12.90;86.10;;;;;;5043207;28;19912;-76
2022/09/17 13:14:55;;;;;;;;;;;13.20;80.30;;;;;;5047651;28;19959;-76
2022/09/17 13:17:42;;;;;;;;;;;15.20;76.20;;;;;;5041614;28;19917;-76
2022/09/17 13:20:15;;;;;;;;;;;14.90;67.50;;;;;;5040216;28;19917;-76
2022/09/17 13:22:45;;;;;;;;;;;14.10;66.70;;;;;;5025338;28;19913;-76
2022/09/17 13:25:12;;;;;;;;;;;13.90;68.20;;;;;;5041189;28;19912;-76
2022/09/17 13:27:38;;;;;;;;;;;13.60;72.70;;;;;;5040931;28;20172;-76
2022/09/17 13:30:05;;;;;;;;;;;13.60;66.60;;;;;;5047606;28;20617;-76
2022/09/17 13:32:33;;;;;;;;;;;13.60;66.60;;;;;;5048192;28;19921;-76
2022/09/17 13:35:05;;;;;;;;;;;13.90;68.40;;;;;;5050082;28;19912;-76
2022/09/17 13:37:31;;;;;;;;;;;13.30;66.10;;;;;;5042717;28;19944;-76
2022/09/17 13:39:58;;;;;;;;;;;13.00;70.70;;;;;;5045073;28;19913;-77
2022/09/17 13:42:27;;;;;;;;;;;13.00;70.50;;;;;;5048820;28;20001;-76
2022/09/17 13:45:02;;;;;;;;;;;12.80;71.30;;;;;;5044907;28;19912;-76
2022/09/17 13:47:32;;;;;;;;;;;12.60;72.10;;;;;;5038458;28;19909;-76
2022/09/17 13:50:08;;;;;;;;;;;12.80;76.90;;;;;;5038515;28;20431;-76
2022/09/17 13:52:36;;;;;;;;;;;13.00;75.80;;;;;;5048257;28;19917;-76
2022/09/17 13:55:02;;;;;;;;;;;13.10;75.20;;;;;;5047037;28;19916;-76
2022/09/17 13:57:28;;;;;;;;;;;14.90;67.70;;;;;;5046109;28;20007;-77
2022/09/17 13:59:56;;;;;;;;;;;14.60;61.00;;;;;;5049586;28;20271;-76
2022/09/17 14:02:26;;;;;;;;;;;14.60;63.70;;;;;;5041994;28;19925;-77
2022/09/17 14:04:56;;;;;;;;;;;14.40;64.20;;;;;;5049293;28;19999;-76
2022/09/17 14:07:25;;;;;;;;;;;16.00;62.60;;;;;;5046222;28;20360;-77
2022/09/17 14:09:55;;;;;;;;;;;18.00;49.90;;;;;;5049746;28;20375;-77
2022/09/17 14:12:43;;;;;;;;;;;15.80;55.00;;;;;;5041005;28;19913;-77
2022/09/17 14:15:27;;;;;;;;;;;14.50;62.70;;;;;;5047793;28;19919;-77
2022/09/17 14:17:53;;;;;;;;;;;14.40;67.00;;;;;;5044779;28;19923;-76
2022/09/17 14:20:20;;;;;;;;;;;14.50;66.20;;;;;;5046140;28;20579;-77
2022/09/17 14:22:53;;;;;;;;;;;14.50;63.90;;;;;;5047491;28;20406;-76
2022/09/17 14:25:21;;;;;;;;;;;14.00;68.00;;;;;;5048002;28;19913;-76
2022/09/17 14:27:50;;;;;;;;;;;13.40;68.60;;;;;;5060437;28;19909;-76
2022/09/17 14:30:20;;;;;;;;;;;13.10;69.10;;;;;;5047458;28;19939;-76
2022/09/17 14:32:55;;;;;;;;;;;13.00;69.70;;;;;;5029929;28;19935;-76
2022/09/17 14:35:22;;;;;;;;;;;12.70;68.20;;;;;;5032096;28;19920;-76
2022/09/17 14:37:52;;;;;;;;;;;12.60;70.60;;;;;;5045176;28;19960;-76